Time;durP1;ratioP1;P1;durP2;ratioP2;P2;SDS_P1;SDS_P2;PMS_P1;PMS_P2;Temp;Humidity;BMP_temperature;BMP_pressure;BME280_temperature;BME280_humidity;BME280_pressure;Samples;Min_cycle;Max_cycle;Signal;HPM_P1;HPM_P2
2023/07/26 00:01:37;;;;;;;6.67;4.03;;;;;;;;;;4995460;28;20189;-81
2023/07/26 00:04:42;;;;;;;6.67;4.20;;;;;;;;;;4994863;28;20197;-81
2023/07/26 00:07:46;;;;;;;5.50;4.40;;;;;;;;;;4994483;28;20553;-81
2023/07/26 00:10:50;;;;;;;6.30;4.20;;;;;;;;;;4994419;28;20671;-81
2023/07/26 00:13:54;;;;;;;7.67;4.10;;;;;;;;;;4994555;28;20193;-81
2023/07/26 00:16:58;;;;;;;6.30;4.10;;;;;;;;;;4983252;28;20193;-81
2023/07/26 00:20:03;;;;;;;5.50;4.03;;;;;;;;;;5005361;28;20197;-81
2023/07/26 00:23:07;;;;;;;4.87;4.13;;;;;;;;;;4994695;28;20197;-82
2023/07/26 00:26:11;;;;;;;4.87;4.37;;;;;;;;;;5005387;28;20224;-82
2023/07/26 00:29:15;;;;;;;4.60;4.20;;;;;;;;;;4995692;28;20173;-81
2023/07/26 00:32:19;;;;;;;5.73;4.57;;;;;;;;;;4997904;28;20189;-82
2023/07/26 00:35:25;;;;;;;5.93;4.90;;;;;;;;;;4986214;28;20213;-82
2023/07/26 00:38:29;;;;;;;5.67;4.53;;;;;;;;;;4986846;28;20177;-82
2023/07/26 00:41:33;;;;;;;6.87;5.00;;;;;;;;;;4997349;28;20177;-82
2023/07/26 00:44:38;;;;;;;6.13;4.80;;;;;;;;;;4997726;28;20182;-82
2023/07/26 00:47:42;;;;;;;5.83;4.67;;;;;;;;;;4997958;28;20209;-82
2023/07/26 00:50:47;;;;;;;7.93;5.17;;;;;;;;;;4985912;28;20632;-82
2023/07/26 00:53:52;;;;;;;5.93;4.90;;;;;;;;;;4985094;28;20529;-82
2023/07/26 00:56:56;;;;;;;8.87;5.40;;;;;;;;;;4985198;28;20173;-82
2023/07/26 01:00:01;;;;;;;8.67;4.80;;;;;;;;;;4995497;28;20185;-82
2023/07/26 01:03:07;;;;;;;6.13;4.90;;;;;;;;;;4995418;28;20182;-82
2023/07/26 01:06:14;;;;;;;6.00;5.20;;;;;;;;;;4983281;28;20221;-82
2023/07/26 01:09:30;;;;;;;8.70;5.60;;;;;;;;;;4983793;28;20174;-82
2023/07/26 01:12:42;;;;;;;8.53;5.73;;;;;;;;;;4982517;28;20542;-82
2023/07/26 01:15:48;;;;;;;7.40;5.63;;;;;;;;;;5016486;28;20221;-82
2023/07/26 01:18:52;;;;;;;7.30;5.87;;;;;;;;;;4992789;28;20197;-82
2023/07/26 01:21:57;;;;;;;7.07;5.80;;;;;;;;;;5004119;28;20629;-82
2023/07/26 01:25:01;;;;;;;7.17;6.00;;;;;;;;;;4981475;28;20228;-81
2023/07/26 01:28:05;;;;;;;6.60;5.10;;;;;;;;;;4992793;28;20537;-82
2023/07/26 01:31:11;;;;;;;7.37;5.80;;;;;;;;;;4992781;28;20197;-82
2023/07/26 01:34:15;;;;;;;6.20;5.47;;;;;;;;;;5003655;28;20201;-82
2023/07/26 01:37:20;;;;;;;6.97;5.83;;;;;;;;;;4992358;28;20177;-82
2023/07/26 01:40:26;;;;;;;8.57;6.10;;;;;;;;;;5015360;28;20633;-82
2023/07/26 01:43:32;;;;;;;6.37;5.77;;;;;;;;;;4992271;28;20632;-82
2023/07/26 01:46:36;;;;;;;8.63;5.93;;;;;;;;;;4992128;28;20220;-82
2023/07/26 01:49:40;;;;;;;7.03;6.13;;;;;;;;;;5003338;28;20193;-81
2023/07/26 01:52:44;;;;;;;6.87;6.03;;;;;;;;;;5003301;28;20197;-82
2023/07/26 01:55:48;;;;;;;7.83;5.80;;;;;;;;;;4992218;28;20220;-82
2023/07/26 01:58:53;;;;;;;6.17;5.20;;;;;;;;;;4981084;28;20178;-82
2023/07/26 02:01:57;;;;;;;7.30;5.47;;;;;;;;;;4991731;28;20185;-82
2023/07/26 02:05:02;;;;;;;6.10;5.50;;;;;;;;;;4980949;28;20683;-82
2023/07/26 02:08:06;;;;;;;5.77;5.17;;;;;;;;;;5003286;28;20205;-82
2023/07/26 02:11:10;;;;;;;6.87;5.67;;;;;;;;;;4991623;28;20580;-82
2023/07/26 02:14:15;;;;;;;7.77;5.37;;;;;;;;;;4991560;28;20197;-82
2023/07/26 02:17:20;;;;;;;8.17;5.10;;;;;;;;;;4991861;28;20169;-82
2023/07/26 02:20:24;;;;;;;6.43;4.87;;;;;;;;;;4991960;28;20173;-82
2023/07/26 02:23:28;;;;;;;7.83;5.43;;;;;;;;;;4980882;28;20173;-82
2023/07/26 02:26:34;;;;;;;8.47;5.70;;;;;;;;;;4991631;28;20221;-81
2023/07/26 02:29:38;;;;;;;8.77;5.70;;;;;;;;;;4991671;28;20174;-81
2023/07/26 02:32:42;;;;;;;7.50;4.50;;;;;;;;;;5002125;28;20182;-82
2023/07/26 02:35:46;;;;;;;6.53;4.80;;;;;;;;;;4980152;28;20216;-82
2023/07/26 02:38:51;;;;;;;5.90;4.67;;;;;;;;;;5002751;28;20185;-81
2023/07/26 02:41:54;;;;;;;5.60;4.37;;;;;;;;;;4991219;28;20181;-81
2023/07/26 02:44:58;;;;;;;7.87;4.50;;;;;;;;;;4991118;28;20217;-82
2023/07/26 02:48:03;;;;;;;5.83;4.03;;;;;;;;;;5001984;28;20672;-82
2023/07/26 02:51:07;;;;;;;6.50;4.37;;;;;;;;;;4980467;28;20178;-82
2023/07/26 02:54:11;;;;;;;5.37;4.37;;;;;;;;;;4980331;28;20521;-82
2023/07/26 02:57:16;;;;;;;5.53;4.50;;;;;;;;;;4979943;28;20181;-82
2023/07/26 03:00:20;;;;;;;5.43;4.13;;;;;;;;;;4980617;28;20185;-81
2023/07/26 03:03:24;;;;;;;7.23;4.60;;;;;;;;;;4980349;28;20181;-82
2023/07/26 03:06:28;;;;;;;5.20;4.00;;;;;;;;;;4990984;28;20217;-82
2023/07/26 03:09:32;;;;;;;6.33;4.30;;;;;;;;;;4991298;28;20205;-82
2023/07/26 03:12:36;;;;;;;5.23;4.70;;;;;;;;;;4979847;28;20557;-82
2023/07/26 03:15:40;;;;;;;6.03;4.13;;;;;;;;;;4990827;28;20221;-81
2023/07/26 03:18:45;;;;;;;5.83;4.90;;;;;;;;;;5001979;28;20193;-82
2023/07/26 03:21:49;;;;;;;5.53;4.43;;;;;;;;;;4980188;28;20197;-82
2023/07/26 03:24:53;;;;;;;4.77;4.23;;;;;;;;;;5001808;28;20217;-82
2023/07/26 03:27:57;;;;;;;5.30;4.80;;;;;;;;;;4992821;28;20205;-82
2023/07/26 03:31:01;;;;;;;8.37;5.40;;;;;;;;;;4991749;28;20181;-82
2023/07/26 03:34:05;;;;;;;6.53;5.40;;;;;;;;;;4980244;28;20641;-82
2023/07/26 03:37:10;;;;;;;7.20;5.30;;;;;;;;;;4991384;28;20186;-82
2023/07/26 03:40:14;;;;;;;7.33;4.90;;;;;;;;;;4991586;28;20178;-82
2023/07/26 03:43:18;;;;;;;9.93;6.30;;;;;;;;;;5016358;28;20185;-82
2023/07/26 03:46:22;;;;;;;6.40;5.77;;;;;;;;;;4983619;28;20221;-81
2023/07/26 03:49:26;;;;;;;9.03;5.63;;;;;;;;;;4995352;28;20201;-81
2023/07/26 03:52:31;;;;;;;7.80;6.00;;;;;;;;;;4994552;28;20637;-82
2023/07/26 03:55:35;;;;;;;7.33;5.60;;;;;;;;;;4983138;28;20217;-81
2023/07/26 03:58:39;;;;;;;8.53;5.90;;;;;;;;;;5005878;28;20502;-81
2023/07/26 04:01:44;;;;;;;7.03;6.27;;;;;;;;;;5006679;28;20205;-81
2023/07/26 04:04:48;;;;;;;7.03;5.60;;;;;;;;;;5006019;28;20213;-82
2023/07/26 04:07:52;;;;;;;9.70;6.10;;;;;;;;;;4995351;28;20182;-82
2023/07/26 04:11:01;;;;;;;7.67;6.63;;;;;;;;;;4994462;28;20530;-81
2023/07/26 04:14:05;;;;;;;9.33;6.83;;;;;;;;;;4994555;28;20177;-82
2023/07/26 04:17:09;;;;;;;10.77;7.33;;;;;;;;;;4983720;28;20178;-82
2023/07/26 04:20:14;;;;;;;13.43;7.17;;;;;;;;;;4994695;28;20193;-82
2023/07/26 04:23:18;;;;;;;12.00;6.30;;;;;;;;;;4995565;28;20200;-82
2023/07/26 04:26:22;;;;;;;10.83;7.63;;;;;;;;;;5047296;23;20228;-83
2023/07/26 04:29:26;;;;;;;10.73;7.40;;;;;;;;;;5025531;28;20213;-83
2023/07/26 04:32:30;;;;;;;11.57;7.47;;;;;;;;;;5036886;28;20180;-84
2023/07/26 04:35:35;;;;;;;9.00;7.40;;;;;;;;;;5036652;28;20216;-84
2023/07/26 04:38:39;;;;;;;11.43;7.70;;;;;;;;;;5037926;28;20188;-84
2023/07/26 04:41:43;;;;;;;9.43;8.17;;;;;;;;;;5014143;28;20556;-84
2023/07/26 04:44:47;;;;;;;8.20;7.40;;;;;;;;;;5025693;28;20180;-84
2023/07/26 04:47:52;;;;;;;9.47;7.63;;;;;;;;;;5025112;28;20192;-84
2023/07/26 04:50:56;;;;;;;8.37;7.33;;;;;;;;;;5038197;28;20176;-84
2023/07/26 04:54:00;;;;;;;12.50;8.67;;;;;;;;;;5025110;28;20181;-84
2023/07/26 04:57:04;;;;;;;13.13;7.93;;;;;;;;;;5036591;28;20217;-84
2023/07/26 05:00:09;;;;;;;11.37;7.70;;;;;;;;;;5036637;28;20177;-84
2023/07/26 05:03:13;;;;;;;13.60;7.73;;;;;;;;;;5035672;28;20177;-83
2023/07/26 05:06:17;;;;;;;8.10;6.53;;;;;;;;;;5024224;28;20216;-84
2023/07/26 05:09:21;;;;;;;8.60;7.10;;;;;;;;;;5013308;28;20213;-84
2023/07/26 05:12:25;;;;;;;11.97;8.07;;;;;;;;;;5035370;28;20644;-84
2023/07/26 05:15:30;;;;;;;11.37;7.10;;;;;;;;;;5035296;28;20208;-84
2023/07/26 05:18:34;;;;;;;8.90;7.80;;;;;;;;;;5024518;28;20173;-84
2023/07/26 05:21:39;;;;;;;8.40;7.50;;;;;;;;;;5013383;28;20188;-84
2023/07/26 05:24:43;;;;;;;9.13;6.77;;;;;;;;;;5013366;28;20612;-84
2023/07/26 05:27:47;;;;;;;12.23;8.80;;;;;;;;;;5034769;28;20196;-84
2023/07/26 05:30:54;;;;;;;15.10;8.43;;;;;;;;;;5024373;28;20671;-84
2023/07/26 05:33:58;;;;;;;10.80;8.67;;;;;;;;;;5012393;28;20200;-88
2023/07/26 05:37:03;;;;;;;11.07;8.40;;;;;;;;;;5023197;28;20216;-86
2023/07/26 05:40:07;;;;;;;9.60;8.13;;;;;;;;;;5011772;28;20623;-85
2023/07/26 05:43:11;;;;;;;11.07;7.17;;;;;;;;;;5022872;28;20181;-87
2023/07/26 05:46:15;;;;;;;9.73;7.37;;;;;;;;;;5011563;28;20220;-87
2023/07/26 05:49:19;;;;;;;10.53;8.43;;;;;;;;;;5022446;28;20220;-86
2023/07/26 05:52:24;;;;;;;7.67;6.57;;;;;;;;;;5012159;28;20204;-86
2023/07/26 05:55:28;;;;;;;10.03;8.13;;;;;;;;;;5035957;28;20212;-87
2023/07/26 05:58:35;;;;;;;9.37;8.43;;;;;;;;;;5012867;28;20180;-89
2023/07/26 06:01:39;;;;;;;9.43;7.33;;;;;;;;;;5022037;28;20180;-87
2023/07/26 06:04:46;;;;;;;8.43;7.37;;;;;;;;;;5010672;28;20189;-86
2023/07/26 06:07:51;;;;;;;12.63;9.30;;;;;;;;;;5010722;28;20181;-87
2023/07/26 06:10:55;;;;;;;10.77;9.67;;;;;;;;;;5021926;28;20172;-89
2023/07/26 06:13:59;;;;;;;12.37;9.10;;;;;;;;;;5021975;28;20185;-87
2023/07/26 06:17:04;;;;;;;13.57;9.00;;;;;;;;;;5002057;23;20578;-72
2023/07/26 06:20:10;;;;;;;11.53;7.53;;;;;;;;;;4994015;28;20182;-72
2023/07/26 06:23:14;;;;;;;12.33;8.47;;;;;;;;;;4984973;28;20179;-72
2023/07/26 06:26:19;;;;;;;9.83;8.80;;;;;;;;;;4974442;28;20175;-72
2023/07/26 06:29:23;;;;;;;13.47;9.83;;;;;;;;;;4973638;28;20206;-73
2023/07/26 06:32:27;;;;;;;10.43;8.60;;;;;;;;;;4974592;28;20701;-72
2023/07/26 06:35:32;;;;;;;11.33;8.47;;;;;;;;;;4974363;28;20179;-72
2023/07/26 06:38:35;;;;;;;14.20;10.37;;;;;;;;;;4974330;28;20183;-72
2023/07/26 06:41:40;;;;;;;11.63;9.87;;;;;;;;;;4974266;28;20222;-72
2023/07/26 06:44:44;;;;;;;12.13;9.57;;;;;;;;;;4974372;28;20179;-72
2023/07/26 06:47:48;;;;;;;13.03;10.17;;;;;;;;;;4974548;28;20206;-72
2023/07/26 06:50:52;;;;;;;11.60;10.13;;;;;;;;;;4974345;28;20585;-72
2023/07/26 06:53:56;;;;;;;12.27;10.70;;;;;;;;;;4974602;28;20194;-72
2023/07/26 06:57:00;;;;;;;12.23;10.93;;;;;;;;;;4973534;28;20644;-72
2023/07/26 07:00:06;;;;;;;12.20;10.57;;;;;;;;;;4984869;28;20193;-72
2023/07/26 07:03:10;;;;;;;26.50;11.40;;;;;;;;;;4973366;28;20205;-72
2023/07/26 07:06:14;;;;;;;14.40;11.40;;;;;;;;;;4974120;28;20209;-72
2023/07/26 07:09:18;;;;;;;12.73;11.20;;;;;;;;;;4974634;28;20217;-72
2023/07/26 07:12:23;;;;;;;13.07;10.53;;;;;;;;;;4973851;28;20724;-72
2023/07/26 07:15:27;;;;;;;13.17;11.60;;;;;;;;;;4973352;28;20209;-72
2023/07/26 07:18:32;;;;;;;14.50;11.37;;;;;;;;;;4976085;28;20561;-72
2023/07/26 07:21:36;;;;;;;14.90;11.93;;;;;;;;;;4978500;28;20222;-72
2023/07/26 07:24:40;;;;;;;13.50;11.17;;;;;;;;;;4977712;28;20665;-72
2023/07/26 07:27:44;;;;;;;12.33;10.70;;;;;;;;;;4977921;28;20210;-71
2023/07/26 07:30:49;;;;;;;12.60;11.07;;;;;;;;;;4977701;28;20735;-71
2023/07/26 07:33:53;;;;;;;12.07;10.87;;;;;;;;;;4977523;28;20190;-72
2023/07/26 07:36:57;;;;;;;12.47;10.27;;;;;;;;;;4977551;28;20186;-72
2023/07/26 07:40:07;;;;;;;12.27;10.43;;;;;;;;;;4977485;28;20185;-72
2023/07/26 07:43:11;;;;;;;12.90;9.07;;;;;;;;;;4987717;28;20190;-71
2023/07/26 07:46:16;;;;;;;14.77;9.47;;;;;;;;;;4977598;28;20658;-72
2023/07/26 07:49:20;;;;;;;10.90;9.10;;;;;;;;;;4976350;28;20222;-72
2023/07/26 07:52:24;;;;;;;11.17;8.97;;;;;;;;;;4977466;28;20697;-72
2023/07/26 07:55:31;;;;;;;11.80;8.13;;;;;;;;;;4977158;28;20202;-72
2023/07/26 07:58:34;;;;;;;12.03;8.67;;;;;;;;;;4977142;28;20198;-72
2023/07/26 08:01:39;;;;;;;12.40;8.73;;;;;;;;;;4977184;28;20219;-72
2023/07/26 08:04:43;;;;;;;9.83;8.53;;;;;;;;;;4977024;28;20183;-72
2023/07/26 08:07:50;;;;;;;8.57;7.43;;;;;;;;;;4977264;28;20179;-72
2023/07/26 08:10:54;;;;;;;10.10;8.30;;;;;;;;;;4965288;28;20222;-72
2023/07/26 08:13:58;;;;;;;8.23;7.37;;;;;;;;;;4976590;28;20183;-72
2023/07/26 08:17:02;;;;;;;7.50;6.67;;;;;;;;;;4976767;28;20214;-72
2023/07/26 08:20:07;;;;;;;8.57;6.90;;;;;;;;;;4987156;28;20179;-72
2023/07/26 08:23:11;;;;;;;9.53;7.57;;;;;;;;;;4977221;28;20194;-73
2023/07/26 08:26:15;;;;;;;9.20;7.67;;;;;;;;;;4976747;28;20171;-72
2023/07/26 08:29:19;;;;;;;12.43;8.57;;;;;;;;;;4986786;28;20202;-72
2023/07/26 08:32:23;;;;;;;8.60;7.70;;;;;;;;;;4975961;28;20222;-72
2023/07/26 08:35:28;;;;;;;8.30;7.40;;;;;;;;;;4976933;28;20178;-72
2023/07/26 08:38:35;;;;;;;12.17;8.43;;;;;;;;;;4976975;28;20191;-72
2023/07/26 08:41:40;;;;;;;8.37;7.43;;;;;;;;;;4975796;28;20210;-72
2023/07/26 08:44:49;;;;;;;11.07;7.67;;;;;;;;;;4976078;28;20530;-72
2023/07/26 08:47:54;;;;;;;8.53;7.73;;;;;;;;;;4976699;28;20199;-72
2023/07/26 08:51:00;;;;;;;7.97;6.97;;;;;;;;;;4976180;28;20226;-72
2023/07/26 08:54:04;;;;;;;7.70;6.90;;;;;;;;;;4976693;28;20187;-72
2023/07/26 08:57:08;;;;;;;8.90;5.67;;;;;;;;;;4976413;28;20179;-73
2023/07/26 09:00:13;;;;;;;4.67;4.03;;;;;;;;;;4976631;28;20179;-73
2023/07/26 09:03:17;;;;;;;5.30;4.40;;;;;;;;;;4986460;28;20191;-73
2023/07/26 09:06:23;;;;;;;5.40;4.37;;;;;;;;;;4976064;28;20183;-72
2023/07/26 09:09:27;;;;;;;8.73;4.33;;;;;;;;;;4986502;28;20207;-72
2023/07/26 09:12:31;;;;;;;7.43;4.90;;;;;;;;;;4976013;28;20214;-72
2023/07/26 09:15:37;;;;;;;6.00;4.63;;;;;;;;;;4975742;28;20559;-73
2023/07/26 09:19:01;;;;;;;5.73;5.10;;;;;;;;;;4975897;28;20183;-72
2023/07/26 09:22:08;;;;;;;6.27;5.67;;;;;;;;;;4974922;28;20214;-72
2023/07/26 09:25:12;;;;;;;8.00;5.20;;;;;;;;;;4986443;28;20183;-72
2023/07/26 09:28:16;;;;;;;5.97;5.27;;;;;;;;;;4975561;28;20179;-72
2023/07/26 09:31:43;;;;;;;5.90;4.20;;;;;;;;;;4986024;28;20222;-72
2023/07/26 09:34:47;;;;;;;5.53;3.83;;;;;;;;;;4975668;28;20190;-72
2023/07/26 09:37:51;;;;;;;5.67;3.87;;;;;;;;;;4975141;28;20178;-72
2023/07/26 09:40:55;;;;;;;8.23;4.30;;;;;;;;;;4974825;28;20705;-72
2023/07/26 09:43:59;;;;;;;4.53;3.57;;;;;;;;;;4975251;28;20208;-72
2023/07/26 09:47:04;;;;;;;6.63;4.67;;;;;;;;;;4985818;28;20550;-72
2023/07/26 09:50:25;;;;;;;6.90;3.93;;;;;;;;;;4974224;28;20218;-72
2023/07/26 09:53:33;;;;;;;5.47;3.60;;;;;;;;;;4975364;28;20195;-72
2023/07/26 09:56:40;;;;;;;5.30;3.40;;;;;;;;;;4975124;28;20179;-72
2023/07/26 09:59:47;;;;;;;6.60;3.57;;;;;;;;;;4975464;28;20508;-73
2023/07/26 10:02:59;;;;;;;5.97;3.13;;;;;;;;;;4975117;28;20186;-72
2023/07/26 10:06:04;;;;;;;6.03;3.73;;;;;;;;;;4985242;28;20645;-72
2023/07/26 10:09:12;;;;;;;4.93;2.90;;;;;;;;;;4974491;28;20190;-72
2023/07/26 10:12:20;;;;;;;4.37;3.23;;;;;;;;;;4974591;28;20210;-72
2023/07/26 10:15:25;;;;;;;7.13;3.27;;;;;;;;;;4974640;28;20207;-72
2023/07/26 10:18:30;;;;;;;6.63;3.40;;;;;;;;;;4974677;28;20179;-73
2023/07/26 10:21:37;;;;;;;4.50;2.87;;;;;;;;;;4974666;28;20215;-72
2023/07/26 10:24:44;;;;;;;3.03;2.30;;;;;;;;;;4974517;28;20672;-73
2023/07/26 10:27:49;;;;;;;3.53;2.40;;;;;;;;;;5038738;22;20232;-71
2023/07/26 10:30:54;;;;;;;3.65;2.60;;;;;;;;;;5033241;28;20706;-71
2023/07/26 10:33:58;;;;;;;4.47;2.30;;;;;;;;;;5033352;28;20187;-71
2023/07/26 10:37:18;;;;;;;4.53;2.10;;;;;;;;;;5032952;28;20548;-71
2023/07/26 10:40:28;;;;;;;4.10;2.20;;;;;;;;;;5033426;28;20180;-71
2023/07/26 10:43:32;;;;;;;5.77;3.23;;;;;;;;;;5032512;28;20180;-72
2023/07/26 10:46:50;;;;;;;6.33;3.20;;;;;;;;;;5033308;28;20183;-71
2023/07/26 10:49:57;;;;;;;4.37;2.50;;;;;;;;;;5032897;28;20183;-71
2023/07/26 10:53:26;;;;;;;5.03;2.70;;;;;;;;;;5023983;28;20179;-70
2023/07/26 10:56:32;;;;;;;4.07;2.60;;;;;;;;;;5036431;28;20180;-70
2023/07/26 10:59:56;;;;;;;9.43;2.80;;;;;;;;;;5036395;28;20181;-70
2023/07/26 11:03:01;;;;;;;3.67;2.70;;;;;;;;;;5037389;28;20510;-71
2023/07/26 11:06:05;;;;;;;2.83;2.53;;;;;;;;;;5036862;28;20194;-70
2023/07/26 11:09:19;;;;;;;3.50;2.50;;;;;;;;;;5036510;28;20187;-71
2023/07/26 11:12:24;;;;;;;2.67;2.40;;;;;;;;;;5037026;28;20558;-70
2023/07/26 11:15:32;;;;;;;3.60;2.60;;;;;;;;;;5036569;28;20618;-71
2023/07/26 11:18:40;;;;;;;3.67;3.00;;;;;;;;;;5036499;28;20219;-71
2023/07/26 11:21:44;;;;;;;7.10;2.70;;;;;;;;;;5036821;28;20211;-71
2023/07/26 11:24:49;;;;;;;3.53;2.53;;;;;;;;;;5036910;28;20182;-71
2023/07/26 11:27:53;;;;;;;4.30;2.27;;;;;;;;;;5036531;28;20209;-71
2023/07/26 11:30:58;;;;;;;2.47;2.27;;;;;;;;;;5036614;28;20228;-71
2023/07/26 11:34:22;;;;;;;3.33;1.80;;;;;;;;;;5035957;28;20636;-71
2023/07/26 11:37:26;;;;;;;3.13;2.07;;;;;;;;;;5036681;28;20620;-71
2023/07/26 11:40:36;;;;;;;5.67;2.03;;;;;;;;;;5035449;28;20196;-71
2023/07/26 11:43:41;;;;;;;5.13;1.80;;;;;;;;;;5035746;28;20628;-71
2023/07/26 11:46:45;;;;;;;3.53;1.90;;;;;;;;;;5036406;28;20192;-71
2023/07/26 11:49:49;;;;;;;4.07;1.70;;;;;;;;;;5036143;28;20196;-71
2023/07/26 11:53:04;;;;;;;4.70;1.60;;;;;;;;;;5036120;28;20192;-71
2023/07/26 11:56:08;;;;;;;1.77;1.10;;;;;;;;;;5035549;28;20636;-71
2023/07/26 11:59:12;;;;;;;2.77;1.10;;;;;;;;;;5035511;28;20173;-71
2023/07/26 12:02:17;;;;;;;1.07;0.80;;;;;;;;;;5035936;28;20213;-71
2023/07/26 12:05:25;;;;;;;0.83;0.73;;;;;;;;;;5035391;28;20181;-71
2023/07/26 12:08:30;;;;;;;1.73;0.70;;;;;;;;;;5035445;28;20520;-71
2023/07/26 12:11:34;;;;;;;2.37;0.87;;;;;;;;;;5034921;28;20228;-71
2023/07/26 12:14:38;;;;;;;1.40;1.07;;;;;;;;;;5035737;28;20177;-71
2023/07/26 12:17:57;;;;;;;1.30;1.20;;;;;;;;;;5038789;28;20180;-71
2023/07/26 12:21:07;;;;;;;1.50;1.10;;;;;;;;;;5036182;28;20209;-71
2023/07/26 12:24:12;;;;;;;4.60;1.20;;;;;;;;;;5036102;28;20181;-71
2023/07/26 12:27:16;;;;;;;1.17;0.90;;;;;;;;;;5035540;28;20552;-71
2023/07/26 12:30:20;;;;;;;1.80;0.97;;;;;;;;;;5035786;28;20180;-71
2023/07/26 12:33:25;;;;;;;2.70;1.07;;;;;;;;;;5035592;28;20201;-71
2023/07/26 12:36:46;;;;;;;24.27;2.33;;;;;;;;;;5034758;28;20200;-71
2023/07/26 12:39:51;;;;;;;12.90;1.93;;;;;;;;;;5035791;28;20185;-71
2023/07/26 12:42:55;;;;;;;6.20;1.37;;;;;;;;;;5035181;28;20192;-71
2023/07/26 12:46:03;;;;;;;2.47;1.17;;;;;;;;;;5023250;28;20201;-71
2023/07/26 12:49:08;;;;;;;1.50;0.90;;;;;;;;;;5035359;28;20524;-71
2023/07/26 12:52:12;;;;;;;1.20;0.90;;;;;;;;;;5023249;28;20221;-71
2023/07/26 12:55:16;;;;;;;0.90;0.60;;;;;;;;;;5035464;28;20173;-71
2023/07/26 12:58:21;;;;;;;1.00;0.70;;;;;;;;;;5034639;28;20184;-71
2023/07/26 13:01:24;;;;;;;1.10;0.80;;;;;;;;;;5034793;28;20216;-71
2023/07/26 13:04:29;;;;;;;1.00;0.70;;;;;;;;;;5034744;28;20193;-71
2023/07/26 13:07:33;;;;;;;1.40;0.80;;;;;;;;;;5034458;28;20176;-71
2023/07/26 13:10:37;;;;;;;1.80;0.90;;;;;;;;;;5034518;28;20212;-71
2023/07/26 13:13:41;;;;;;;1.83;0.73;;;;;;;;;;5022589;28;20177;-71
2023/07/26 13:16:45;;;;;;;1.60;0.80;;;;;;;;;;5032468;28;20177;-71
2023/07/26 13:19:54;;;;;;;0.90;0.70;;;;;;;;;;5033112;28;20180;-71
2023/07/26 13:22:58;;;;;;;1.73;0.90;;;;;;;;;;5034643;28;20177;-71
2023/07/26 13:26:02;;;;;;;1.43;1.10;;;;;;;;;;5033855;28;20200;-71
2023/07/26 13:29:06;;;;;;;1.33;0.90;;;;;;;;;;5034223;28;20616;-71
2023/07/26 13:32:10;;;;;;;2.73;1.00;;;;;;;;;;5032941;28;20224;-71
2023/07/26 13:35:14;;;;;;;1.47;1.00;;;;;;;;;;5033077;28;20613;-71
2023/07/26 13:38:18;;;;;;;1.53;1.00;;;;;;;;;;5033802;28;20188;-71
2023/07/26 13:41:23;;;;;;;2.23;0.80;;;;;;;;;;5032546;28;20212;-71
2023/07/26 13:44:27;;;;;;;1.70;1.03;;;;;;;;;;5034124;28;20619;-72
2023/07/26 13:47:31;;;;;;;1.63;1.00;;;;;;;;;;5032753;28;20521;-71
2023/07/26 13:50:35;;;;;;;1.53;1.03;;;;;;;;;;5033310;28;20220;-71
2023/07/26 13:53:40;;;;;;;2.97;1.17;;;;;;;;;;5021362;28;20181;-71
2023/07/26 13:56:44;;;;;;;3.33;0.90;;;;;;;;;;5033243;28;20180;-71
2023/07/26 13:59:49;;;;;;;1.90;1.00;;;;;;;;;;5032124;28;20272;-72
2023/07/26 14:02:53;;;;;;;1.30;1.00;;;;;;;;;;5030679;28;20189;-70
2023/07/26 14:05:57;;;;;;;3.33;1.00;;;;;;;;;;5031767;28;20204;-71
2023/07/26 14:09:02;;;;;;;2.07;1.00;;;;;;;;;;5031719;28;20185;-71
2023/07/26 14:12:09;;;;;;;1.63;1.30;;;;;;;;;;5031346;28;20224;-71
2023/07/26 14:15:14;;;;;;;1.63;1.10;;;;;;;;;;5030089;28;20201;-71
2023/07/26 14:18:18;;;;;;;2.47;1.00;;;;;;;;;;5031181;28;20181;-71
2023/07/26 14:21:22;;;;;;;1.90;1.00;;;;;;;;;;5030785;28;20228;-71
2023/07/26 14:24:27;;;;;;;1.13;1.03;;;;;;;;;;5030870;28;20264;-71
2023/07/26 14:27:32;;;;;;;1.73;1.10;;;;;;;;;;5029480;28;20204;-71
2023/07/26 14:30:37;;;;;;;2.40;1.10;;;;;;;;;;5030173;28;20212;-71
2023/07/26 14:33:41;;;;;;;1.30;1.00;;;;;;;;;;5030824;28;20294;-71
2023/07/26 14:36:45;;;;;;;1.93;1.00;;;;;;;;;;5030947;28;20197;-71
2023/07/26 14:39:49;;;;;;;1.50;1.10;;;;;;;;;;5029711;28;20196;-71
2023/07/26 14:42:54;;;;;;;1.47;1.07;;;;;;;;;;5030580;28;20668;-71
2023/07/26 14:45:58;;;;;;;1.23;1.13;;;;;;;;;;5029829;28;20200;-72
2023/07/26 14:49:02;;;;;;;2.40;1.20;;;;;;;;;;5031101;28;20185;-73
2023/07/26 14:52:07;;;;;;;2.30;1.20;;;;;;;;;;5028101;28;20224;-73
2023/07/26 14:55:11;;;;;;;1.23;1.00;;;;;;;;;;5030574;28;20181;-72
2023/07/26 14:58:15;;;;;;;1.20;1.00;;;;;;;;;;5030731;28;20177;-72
2023/07/26 15:01:19;;;;;;;1.30;1.00;;;;;;;;;;5030309;28;20221;-72
2023/07/26 15:04:23;;;;;;;1.77;1.10;;;;;;;;;;5030721;28;20189;-72
2023/07/26 15:07:31;;;;;;;1.70;1.20;;;;;;;;;;5030410;28;20200;-72
2023/07/26 15:10:35;;;;;;;2.30;1.20;;;;;;;;;;4998411;28;20285;-72
2023/07/26 15:13:39;;;;;;;3.97;1.40;;;;;;;;;;5011073;28;20608;-72
2023/07/26 15:16:43;;;;;;;2.57;1.40;;;;;;;;;;5010764;28;20182;-72
2023/07/26 15:19:48;;;;;;;2.13;1.33;;;;;;;;;;5010782;28;20182;-72
2023/07/26 15:22:52;;;;;;;1.40;1.10;;;;;;;;;;5010756;28;20178;-72
2023/07/26 15:25:57;;;;;;;2.80;1.20;;;;;;;;;;4987315;28;20182;-72
2023/07/26 15:29:01;;;;;;;2.80;1.03;;;;;;;;;;5009672;28;20197;-72
2023/07/26 15:32:07;;;;;;;1.07;0.97;;;;;;;;;;5010323;28;20561;-72
2023/07/26 15:35:11;;;;;;;1.60;1.20;;;;;;;;;;5007928;28;20178;-72
2023/07/26 15:38:16;;;;;;;2.37;1.10;;;;;;;;;;5011959;28;20186;-72
2023/07/26 15:41:20;;;;;;;1.47;0.83;;;;;;;;;;5015704;28;20221;-73
2023/07/26 15:44:24;;;;;;;1.17;0.90;;;;;;;;;;5016147;28;20181;-73
2023/07/26 15:47:28;;;;;;;1.60;0.97;;;;;;;;;;5015840;28;20654;-72
2023/07/26 15:50:32;;;;;;;1.20;0.80;;;;;;;;;;5015564;28;20181;-73
2023/07/26 15:53:36;;;;;;;2.20;0.90;;;;;;;;;;5015920;28;20190;-72
2023/07/26 15:56:40;;;;;;;1.63;0.80;;;;;;;;;;5016381;28;20205;-72
2023/07/26 15:59:45;;;;;;;1.33;0.90;;;;;;;;;;5015653;28;20181;-71
2023/07/26 16:02:49;;;;;;;1.37;0.90;;;;;;;;;;5015313;28;20173;-71
2023/07/26 16:05:53;;;;;;;4.30;0.93;;;;;;;;;;5028017;28;20196;-71
2023/07/26 16:08:57;;;;;;;1.20;0.80;;;;;;;;;;5035230;28;20627;-72
2023/07/26 16:12:02;;;;;;;1.37;0.90;;;;;;;;;;5034972;28;20564;-71
2023/07/26 16:15:06;;;;;;;1.30;1.03;;;;;;;;;;5035571;28;20196;-71
2023/07/26 16:18:10;;;;;;;2.93;1.10;;;;;;;;;;5015913;28;20197;-71
2023/07/26 16:21:14;;;;;;;1.30;0.87;;;;;;;;;;5016069;28;20549;-71
2023/07/26 16:24:18;;;;;;;1.37;1.10;;;;;;;;;;5014970;28;20182;-71
2023/07/26 16:27:26;;;;;;;1.13;0.83;;;;;;;;;;5017822;28;20664;-72
2023/07/26 16:30:30;;;;;;;1.57;0.90;;;;;;;;;;4994206;28;20581;-74
2023/07/26 16:33:34;;;;;;;1.10;0.90;;;;;;;;;;4984452;28;20210;-74
2023/07/26 16:36:38;;;;;;;2.47;1.10;;;;;;;;;;4980949;28;20680;-75
2023/07/26 16:39:42;;;;;;;1.93;0.90;;;;;;;;;;4995821;28;20182;-73
2023/07/26 16:42:47;;;;;;;1.57;1.27;;;;;;;;;;4995760;28;20186;-73
2023/07/26 16:45:51;;;;;;;1.10;1.00;;;;;;;;;;4996515;28;20182;-72
2023/07/26 16:48:56;;;;;;;2.93;1.20;;;;;;;;;;4983893;28;20177;-72
2023/07/26 16:52:00;;;;;;;1.57;1.40;;;;;;;;;;4980735;28;20570;-72
2023/07/26 16:55:05;;;;;;;1.77;1.27;;;;;;;;;;4976592;28;20191;-73
2023/07/26 16:58:09;;;;;;;3.80;1.30;;;;;;;;;;4975494;28;20183;-73
2023/07/26 17:01:13;;;;;;;1.30;1.10;;;;;;;;;;4964201;28;20211;-73
2023/07/26 17:04:17;;;;;;;4.10;1.37;;;;;;;;;;4975616;28;20175;-73
2023/07/26 17:07:21;;;;;;;1.63;1.10;;;;;;;;;;4964559;28;20175;-72
2023/07/26 17:10:26;;;;;;;2.73;1.10;;;;;;;;;;4976132;28;20175;-73
2023/07/26 17:13:30;;;;;;;3.17;1.20;;;;;;;;;;4976115;28;20218;-73
2023/07/26 17:16:34;;;;;;;1.57;1.20;;;;;;;;;;4975701;28;20661;-73
2023/07/26 17:19:38;;;;;;;2.53;1.20;;;;;;;;;;4964115;28;20186;-74
2023/07/26 17:22:44;;;;;;;1.40;1.10;;;;;;;;;;4975840;28;20278;-73
2023/07/26 17:25:47;;;;;;;2.17;1.40;;;;;;;;;;4975885;28;20182;-73
2023/07/26 17:28:51;;;;;;;1.43;1.00;;;;;;;;;;4975442;28;20211;-73
2023/07/26 17:31:56;;;;;;;3.40;1.30;;;;;;;;;;4975567;28;20223;-73
2023/07/26 17:35:00;;;;;;;1.43;1.20;;;;;;;;;;4975334;28;20198;-73
2023/07/26 17:38:04;;;;;;;2.60;1.50;;;;;;;;;;4952731;28;20187;-73
2023/07/26 17:41:09;;;;;;;1.90;1.40;;;;;;;;;;4975275;28;20697;-72
2023/07/26 17:44:12;;;;;;;3.27;1.50;;;;;;;;;;4963400;28;20194;-73
2023/07/26 17:47:17;;;;;;;3.00;1.27;;;;;;;;;;4963383;28;20191;-73
2023/07/26 17:50:21;;;;;;;2.03;1.20;;;;;;;;;;4974986;28;20179;-73
2023/07/26 17:53:29;;;;;;;1.70;1.30;;;;;;;;;;4975221;28;20677;-72
2023/07/26 17:56:33;;;;;;;1.53;1.30;;;;;;;;;;4974900;28;20206;-72
2023/07/26 17:59:38;;;;;;;4.20;1.47;;;;;;;;;;4962949;28;20182;-72
2023/07/26 18:02:41;;;;;;;2.03;1.40;;;;;;;;;;4974299;28;20179;-73
2023/07/26 18:05:46;;;;;;;2.07;1.43;;;;;;;;;;4963098;28;20202;-73
2023/07/26 18:08:49;;;;;;;1.73;1.50;;;;;;;;;;4963605;28;20183;-72
2023/07/26 18:11:55;;;;;;;1.87;1.50;;;;;;;;;;4974479;28;20218;-73
2023/07/26 18:15:00;;;;;;;3.77;1.50;;;;;;;;;;4975180;28;20626;-72
2023/07/26 18:18:05;;;;;;;2.43;1.47;;;;;;;;;;4962644;28;20195;-72
2023/07/26 18:21:09;;;;;;;2.43;1.67;;;;;;;;;;4974764;28;20222;-73
2023/07/26 18:24:13;;;;;;;2.93;1.37;;;;;;;;;;4975104;28;20179;-73
2023/07/26 18:27:18;;;;;;;3.43;1.50;;;;;;;;;;4974474;28;20515;-73